createdAt,value
2023-04-01T00:00:25.636Z,82.54
2023-04-01T00:02:56.658Z,82.66
2023-04-01T00:05:27.601Z,82.45
2023-04-01T00:07:58.061Z,82.91
2023-04-01T00:10:28.432Z,83.38
2023-04-01T00:13:01.504Z,83.41
2023-04-01T00:15:32.186Z,83.49
2023-04-01T00:18:03.184Z,83.40
2023-04-01T00:20:34.128Z,83.49
2023-04-01T00:23:04.695Z,83.79
2023-04-01T00:25:35.684Z,83.93
2023-04-01T00:28:08.655Z,84.05
2023-04-01T00:30:40.588Z,84.36
2023-04-01T00:33:11.076Z,83.98
2023-04-01T00:35:41.825Z,83.74
2023-04-01T00:38:12.603Z,83.84
2023-04-01T00:40:46.225Z,83.95
2023-04-01T00:43:22.215Z,83.59
2023-04-01T00:45:53.824Z,83.02
2023-04-01T00:48:29.908Z,83.39
2023-04-01T00:51:07.158Z,83.45
2023-04-01T00:53:42.067Z,83.04
2023-04-01T00:56:17.883Z,83.41
2023-04-01T00:58:54.458Z,83.67
2023-04-01T01:01:26.534Z,84.20
2023-04-01T01:03:57.590Z,83.90
2023-04-01T01:06:42.239Z,84.12
2023-04-01T01:09:29.519Z,84.25
2023-04-01T01:12:10.208Z,84.18
2023-04-01T01:14:58.624Z,85.02
2023-04-01T01:17:44.554Z,85.63
2023-04-01T01:21:01.680Z,86.27
2023-04-01T01:24:22.573Z,86.41
2023-04-01T01:27:05.458Z,86.61
2023-04-01T01:30:09.074Z,86.48
2023-04-01T01:33:10.777Z,86.23
2023-04-01T01:35:48.183Z,86.65
2023-04-01T01:38:26.112Z,87.22
2023-04-01T01:41:10.657Z,86.71
2023-04-01T01:43:46.163Z,86.40
2023-04-01T01:46:23.847Z,87.36
2023-04-01T01:48:55.108Z,87.58
2023-04-01T01:51:31.132Z,88.74
2023-04-01T01:54:01.713Z,89.33
2023-04-01T01:56:34.554Z,90.38
2023-04-01T01:59:10.510Z,90.64
2023-04-01T02:01:46.983Z,92.37
2023-04-01T02:04:19.749Z,92.55
2023-04-01T02:07:01.525Z,92.92
2023-04-01T02:09:34.783Z,93.73
2023-04-01T02:12:10.642Z,92.82
2023-04-01T02:14:47.821Z,92.55
2023-04-01T02:17:22.361Z,92.39
2023-04-01T02:19:56.899Z,92.42
2023-04-01T02:22:35.444Z,92.56
2023-04-01T02:25:11.688Z,92.77
2023-04-01T02:27:43.208Z,92.72
2023-04-01T02:30:15.692Z,92.79
2023-04-01T02:32:46.703Z,92.52
2023-04-01T02:35:20.839Z,92.79
2023-04-01T02:37:55.966Z,92.91
2023-04-01T02:40:27.153Z,91.33
2023-04-01T02:42:57.491Z,91.05
2023-04-01T02:45:27.925Z,90.50
2023-04-01T02:47:58.381Z,90.25
2023-04-01T02:50:28.739Z,89.43
2023-04-01T02:53:01.905Z,89.69
2023-04-01T02:55:32.672Z,89.60
2023-04-01T02:58:03.500Z,89.56
2023-04-01T03:00:34.506Z,89.10
2023-04-01T03:03:04.942Z,88.19
2023-04-01T03:05:35.701Z,87.87
2023-04-01T03:08:09.132Z,87.98
2023-04-01T03:10:39.465Z,87.38
2023-04-01T03:13:10.760Z,87.46
2023-04-01T03:15:41.320Z,87.25
2023-04-01T03:18:11.781Z,87.75
2023-04-01T03:20:42.240Z,87.40
2023-04-01T03:23:15.269Z,87.52
2023-04-01T03:25:45.757Z,86.99
2023-04-01T03:28:16.181Z,87.15
2023-04-01T03:30:47.407Z,86.58
2023-04-01T03:33:18.096Z,86.65
2023-04-01T03:35:48.409Z,86.38
2023-04-01T03:38:21.708Z,86.59
2023-04-01T03:40:52.254Z,86.55
2023-04-01T03:43:23.563Z,86.37
2023-04-01T03:45:55.606Z,86.15
2023-04-01T03:48:26.530Z,86.48
2023-04-01T03:50:56.915Z,85.86
2023-04-01T03:53:30.805Z,85.80
2023-04-01T03:56:08.543Z,85.73
2023-04-01T03:58:40.993Z,85.32
2023-04-01T04:01:22.385Z,85.09
2023-04-01T04:03:56.574Z,84.91
2023-04-01T04:06:28.551Z,84.73
2023-04-01T04:09:01.737Z,84.24
2023-04-01T04:11:35.796Z,84.39
2023-04-01T04:14:06.848Z,83.99
2023-04-01T04:16:40.431Z,83.58
2023-04-01T04:19:11.359Z,83.89
2023-04-01T04:21:43.559Z,83.63
2023-04-01T04:24:17.152Z,83.10
2023-04-01T04:27:10.506Z,83.26
2023-04-01T04:29:47.732Z,82.43
2023-04-01T04:32:18.221Z,82.68
2023-04-01T04:34:48.672Z,82.80
2023-04-01T04:37:19.111Z,83.13
2023-04-01T04:39:52.038Z,82.61
2023-04-01T04:42:23.166Z,82.75
2023-04-01T04:44:57.424Z,82.80
2023-04-01T04:47:27.908Z,82.83
2023-04-01T04:49:58.260Z,83.21
2023-04-01T04:52:28.682Z,83.24
2023-04-01T04:55:01.924Z,83.22
2023-04-01T04:57:32.578Z,83.90
2023-04-01T05:00:02.977Z,84.15
2023-04-01T05:02:57.695Z,84.32
2023-04-01T05:05:28.467Z,84.75
2023-04-01T05:07:58.865Z,85.09
2023-04-01T05:10:32.698Z,85.34
2023-04-01T05:13:03.589Z,85.64
2023-04-01T05:15:35.168Z,86.10
2023-04-01T05:18:06.068Z,85.92
2023-04-01T05:20:36.648Z,85.91
2023-04-01T05:23:07.919Z,85.61
2023-04-01T05:25:42.263Z,85.58
2023-04-01T05:28:13.353Z,85.24
2023-04-01T05:30:45.313Z,85.22
2023-04-01T05:33:30.172Z,85.74
2023-04-01T05:36:00.919Z,85.47
2023-04-01T05:38:31.323Z,85.86
2023-04-01T05:41:06.763Z,85.73
2023-04-01T05:43:41.125Z,85.74
2023-04-01T05:46:32.737Z,85.25
2023-04-01T05:49:12.500Z,85.46
2023-04-01T05:51:43.122Z,85.66
2023-04-01T05:54:13.789Z,85.13
2023-04-01T05:56:48.691Z,85.07
2023-04-01T05:59:19.915Z,84.47
2023-04-01T06:01:50.327Z,83.69
2023-04-01T06:04:22.572Z,83.94
2023-04-01T06:06:53.073Z,83.27
2023-04-01T06:09:30.338Z,83.12
2023-04-01T06:12:28.750Z,82.80
2023-04-01T06:15:24.569Z,81.79
2023-04-01T06:18:34.804Z,80.76
2023-04-01T06:21:29.027Z,79.76
2023-04-01T06:24:25.222Z,80.95
2023-04-01T06:27:04.770Z,79.06
2023-04-01T06:29:59.711Z,78.87
2023-04-01T06:33:00.182Z,78.33
2023-04-01T06:35:56.034Z,77.28
2023-04-01T06:38:50.124Z,78.08
2023-04-01T06:41:48.859Z,77.97
2023-04-01T06:44:27.688Z,77.13
2023-04-01T06:47:34.804Z,77.04
2023-04-01T06:50:30.543Z,76.99
2023-04-01T06:53:26.989Z,76.85
2023-04-01T06:56:39.707Z,76.76
2023-04-01T06:59:22.004Z,77.47
2023-04-01T07:01:57.870Z,77.14
2023-04-01T07:04:34.275Z,77.30
2023-04-01T07:07:09.947Z,77.96
2023-04-01T07:09:53.696Z,77.12
2023-04-01T07:12:55.498Z,77.55
2023-04-01T07:15:47.717Z,77.45
2023-04-01T07:18:23.469Z,77.78
2023-04-01T07:20:57.485Z,77.75
2023-04-01T07:23:32.965Z,77.48
2023-04-01T07:26:26.402Z,77.88
2023-04-01T07:29:09.800Z,78.13
2023-04-01T07:32:05.790Z,78.16
2023-04-01T07:34:48.242Z,78.01
2023-04-01T07:37:33.047Z,78.27
2023-04-01T07:40:18.319Z,78.15
2023-04-01T07:43:11.823Z,78.22
2023-04-01T07:45:59.763Z,78.44
2023-04-01T07:48:41.436Z,78.36
2023-04-01T07:51:19.097Z,78.76
2023-04-01T07:54:07.110Z,78.19
2023-04-01T07:56:45.914Z,77.51
2023-04-01T07:59:31.852Z,77.61
2023-04-01T08:02:14.823Z,77.88
2023-04-01T08:05:04.297Z,77.62
2023-04-01T08:07:46.373Z,76.87
2023-04-01T08:10:47.574Z,76.90
2023-04-01T08:14:01.936Z,76.75
2023-04-01T08:17:01.945Z,77.22
2023-04-01T08:20:00.742Z,77.03
2023-04-01T08:22:42.013Z,76.90
2023-04-01T08:25:27.008Z,77.02
2023-04-01T08:28:08.399Z,77.44
2023-04-01T08:30:47.054Z,77.81
2023-04-01T08:33:26.053Z,77.42
2023-04-01T08:36:08.112Z,77.44
2023-04-01T08:38:46.327Z,78.19
2023-04-01T08:42:01.513Z,79.46
2023-04-01T08:45:24.667Z,81.05
2023-04-01T08:48:23.615Z,81.72
2023-04-01T08:51:36.526Z,84.47
2023-04-01T08:54:33.873Z,86.60
2023-04-01T08:57:12.622Z,87.14
2023-04-01T09:00:15.824Z,86.60
2023-04-01T09:03:38.468Z,87.80
2023-04-01T09:06:47.551Z,89.43
2023-04-01T09:09:53.316Z,86.96
2023-04-01T09:12:57.269Z,88.06
2023-04-01T09:16:05.482Z,87.57
2023-04-01T09:19:02.820Z,86.52
2023-04-01T09:22:02.002Z,85.08
2023-04-01T09:25:03.131Z,85.33
2023-04-01T09:27:39.160Z,85.79
2023-04-01T09:30:37.958Z,83.82
2023-04-01T09:33:56.441Z,83.55
2023-04-01T09:36:49.863Z,82.97
2023-04-01T09:39:41.658Z,81.67
2023-04-01T09:42:49.483Z,80.64
2023-04-01T09:45:41.590Z,80.65
2023-04-01T09:48:25.599Z,80.86
2023-04-01T09:51:09.315Z,80.97
2023-04-01T09:53:57.872Z,80.13
2023-04-01T09:57:15.410Z,79.25
2023-04-01T10:00:36.604Z,78.39
2023-04-01T10:04:01.276Z,79.45
2023-04-01T10:07:05.793Z,78.13
2023-04-01T10:10:35.670Z,78.24
2023-04-01T10:13:46.141Z,75.52
2023-04-01T10:16:31.700Z,76.40
2023-04-01T10:19:46.312Z,74.88
2023-04-01T10:22:44.712Z,74.86
2023-04-01T10:26:00.098Z,75.78
2023-04-01T10:29:07.027Z,74.70
2023-04-01T10:32:17.312Z,74.70
2023-04-01T10:35:49.082Z,73.82
2023-04-01T10:38:54.564Z,74.76
2023-04-01T10:42:28.767Z,75.16
2023-04-01T10:45:58.977Z,73.98
2023-04-01T10:49:23.202Z,73.71
2023-04-01T10:52:31.855Z,74.49
2023-04-01T10:56:03.733Z,72.65
2023-04-01T11:00:05.648Z,72.18
2023-04-01T11:03:49.196Z,72.84
2023-04-01T11:07:25.991Z,72.66
2023-04-01T11:10:44.558Z,73.93
2023-04-01T11:14:00.029Z,72.47
2023-04-01T11:17:11.019Z,72.39
2023-04-01T11:20:33.043Z,70.77
2023-04-01T11:23:33.664Z,70.66
2023-04-01T11:26:12.313Z,70.27
2023-04-01T11:29:19.931Z,70.85
2023-04-01T11:32:03.988Z,69.46
2023-04-01T11:35:10.144Z,69.37
2023-04-01T11:37:48.978Z,68.55
2023-04-01T11:40:47.226Z,70.25
2023-04-01T11:43:44.198Z,69.97
2023-04-01T11:47:12.108Z,68.05
2023-04-01T11:49:54.768Z,68.05
2023-04-01T11:53:03.019Z,66.55
2023-04-01T11:55:45.835Z,66.70
2023-04-01T11:58:39.264Z,67.75
2023-04-01T12:01:26.662Z,67.23
2023-04-01T12:04:58.238Z,68.98
2023-04-01T12:07:48.830Z,69.16
2023-04-01T12:10:23.933Z,69.54
2023-04-01T12:13:04.306Z,69.20
2023-04-01T12:15:55.091Z,69.26
2023-04-01T12:18:34.004Z,70.23
2023-04-01T12:21:20.947Z,70.91
2023-04-01T12:24:30.108Z,71.94
2023-04-01T12:27:11.947Z,72.63
2023-04-01T12:30:10.529Z,73.18
2023-04-01T12:32:49.817Z,73.43
2023-04-01T12:35:27.452Z,72.63
2023-04-01T12:38:20.303Z,73.69
2023-04-01T12:41:22.078Z,73.12
2023-04-01T12:44:29.053Z,72.82
2023-04-01T12:47:39.551Z,72.09
2023-04-01T12:50:41.538Z,71.74
2023-04-01T12:53:35.242Z,68.50
2023-04-01T12:56:11.170Z,69.71
2023-04-01T12:59:26.307Z,69.55
2023-04-01T13:02:17.756Z,69.20
2023-04-01T13:05:31.671Z,68.64
2023-04-01T13:08:12.420Z,68.53
2023-04-01T13:11:13.860Z,67.94
2023-04-01T13:14:30.680Z,68.70
2023-04-01T13:17:11.634Z,69.42
2023-04-01T13:19:57.923Z,69.94
2023-04-01T13:22:49.729Z,69.32
2023-04-01T13:25:29.450Z,69.37
2023-04-01T13:28:12.572Z,69.89
2023-04-01T13:30:54.456Z,68.89
2023-04-01T13:33:36.136Z,68.51
2023-04-01T13:36:22.225Z,67.98
2023-04-01T13:39:19.306Z,67.59
2023-04-01T13:42:26.226Z,67.40
2023-04-01T13:45:06.587Z,67.96
2023-04-01T13:48:25.905Z,68.13
2023-04-01T13:51:32.382Z,67.04
2023-04-01T13:54:27.551Z,67.46
2023-04-01T13:57:19.061Z,66.53
2023-04-01T14:00:23.282Z,66.68
2023-04-01T14:03:18.715Z,67.49
2023-04-01T14:06:06.417Z,68.18
2023-04-01T14:09:04.281Z,67.95
2023-04-01T14:11:45.672Z,69.35
2023-04-01T14:14:27.113Z,67.37
2023-04-01T14:17:20.942Z,66.97
2023-04-01T14:20:30.133Z,66.65
2023-04-01T14:23:18.559Z,67.06
2023-04-01T14:26:26.525Z,67.89
2023-04-01T14:29:07.019Z,67.67
2023-04-01T14:31:58.600Z,68.05
2023-04-01T14:34:59.449Z,68.99
2023-04-01T14:38:12.410Z,73.81
2023-04-01T14:41:03.104Z,73.65
2023-04-01T14:44:03.852Z,73.95
2023-04-01T14:47:21.524Z,73.27
2023-04-01T14:49:58.182Z,73.86
2023-04-01T14:52:35.730Z,73.19
2023-04-01T14:55:22.818Z,73.26
2023-04-01T14:58:09.050Z,72.79
2023-04-01T15:00:58.463Z,73.39
2023-04-01T15:03:34.749Z,72.90
2023-04-01T15:06:45.776Z,71.07
2023-04-01T15:09:28.691Z,70.95
2023-04-01T15:12:16.050Z,71.08
2023-04-01T15:15:13.875Z,69.96
2023-04-01T15:18:09.580Z,70.07
2023-04-01T15:21:05.333Z,70.15
2023-04-01T15:23:53.664Z,70.94
2023-04-01T15:26:49.154Z,69.65
2023-04-01T15:29:39.359Z,70.01
2023-04-01T15:32:21.370Z,70.44
2023-04-01T15:35:01.626Z,70.79
2023-04-01T15:37:42.957Z,71.43
2023-04-01T15:40:27.105Z,70.50
2023-04-01T15:43:15.500Z,70.23
2023-04-01T15:46:02.347Z,69.86
2023-04-01T15:48:54.221Z,70.67
2023-04-01T15:51:52.467Z,70.64
2023-04-01T15:54:57.644Z,70.48
2023-04-01T15:57:46.298Z,70.40
2023-04-01T16:00:30.449Z,70.55
2023-04-01T16:03:35.316Z,69.95
2023-04-01T16:06:34.832Z,69.15
2023-04-01T16:09:25.356Z,69.75
2023-04-01T16:12:01.990Z,68.67
2023-04-01T16:14:46.815Z,68.75
2023-04-01T16:17:39.014Z,68.19
2023-04-01T16:20:23.645Z,68.37
2023-04-01T16:23:02.799Z,68.55
2023-04-01T16:25:41.212Z,67.91
2023-04-01T16:28:24.106Z,67.70
2023-04-01T16:31:03.084Z,67.77
2023-04-01T16:33:44.939Z,67.70
2023-04-01T16:36:26.585Z,67.85
2023-04-01T16:39:13.762Z,68.27
2023-04-01T16:41:52.804Z,67.49
2023-04-01T16:44:27.188Z,67.74
2023-04-01T16:47:03.281Z,68.26
2023-04-01T16:49:40.923Z,68.17
2023-04-01T16:52:20.747Z,68.31
2023-04-01T16:55:01.038Z,68.31
2023-04-01T16:57:39.347Z,68.67
2023-04-01T17:00:26.815Z,68.95
2023-04-01T17:03:13.132Z,69.61
2023-04-01T17:05:59.245Z,69.56
2023-04-01T17:09:03.186Z,69.91
2023-04-01T17:11:42.233Z,69.80
2023-04-01T17:14:25.190Z,70.35
2023-04-01T17:17:41.395Z,70.37
2023-04-01T17:20:42.422Z,70.13
2023-04-01T17:23:25.153Z,70.63
2023-04-01T17:26:31.466Z,70.57
2023-04-01T17:29:09.756Z,70.96
2023-04-01T17:31:56.467Z,71.39
2023-04-01T17:34:56.819Z,71.04
2023-04-01T17:37:49.239Z,71.59
2023-04-01T17:40:39.682Z,70.71
2023-04-01T17:43:22.709Z,70.75
2023-04-01T17:45:59.695Z,71.83
2023-04-01T17:48:46.468Z,71.73
2023-04-01T17:51:28.700Z,71.91
2023-04-01T17:54:15.891Z,71.71
2023-04-01T17:57:01.036Z,71.97
2023-04-01T17:59:40.422Z,72.24
2023-04-01T18:02:28.732Z,73.04
2023-04-01T18:05:38.422Z,73.96
2023-04-01T18:08:20.209Z,74.88
2023-04-01T18:11:06.893Z,75.96
2023-04-01T18:14:11.823Z,76.53
2023-04-01T18:17:03.494Z,77.74
2023-04-01T18:19:44.690Z,77.67
2023-04-01T18:22:24.327Z,78.95
2023-04-01T18:25:05.185Z,79.47
2023-04-01T18:27:44.180Z,79.79
2023-04-01T18:30:20.408Z,80.08
2023-04-01T18:32:56.541Z,80.46
2023-04-01T18:35:38.955Z,81.00
2023-04-01T18:38:16.698Z,81.14
2023-04-01T18:40:52.646Z,81.51
2023-04-01T18:43:39.103Z,80.80
2023-04-01T18:46:16.714Z,81.28
2023-04-01T18:48:58.926Z,81.29
2023-04-01T18:51:42.554Z,80.84
2023-04-01T18:54:20.985Z,80.66
2023-04-01T18:56:51.477Z,81.07
2023-04-01T18:59:31.531Z,79.53
2023-04-01T19:02:11.628Z,79.40
2023-04-01T19:04:47.876Z,77.76
2023-04-01T19:07:48.534Z,77.27
2023-04-01T19:10:27.287Z,77.66
2023-04-01T19:13:23.435Z,77.54
2023-04-01T19:16:06.840Z,77.21
2023-04-01T19:19:15.806Z,76.52
2023-04-01T19:21:51.035Z,77.34
2023-04-01T19:24:53.007Z,76.88
2023-04-01T19:27:35.027Z,77.20
2023-04-01T19:30:40.537Z,77.13
2023-04-01T19:33:32.797Z,77.71
2023-04-01T19:36:15.949Z,77.78
2023-04-01T19:38:57.109Z,77.82
2023-04-01T19:41:43.461Z,77.54
2023-04-01T19:44:34.344Z,77.87
2023-04-01T19:47:15.660Z,77.86
2023-04-01T19:50:04.905Z,78.35
2023-04-01T19:52:38.506Z,78.35
2023-04-01T19:55:25.600Z,78.69
2023-04-01T19:58:06.516Z,78.91
2023-04-01T20:00:42.174Z,79.18
2023-04-01T20:03:29.996Z,79.13
2023-04-01T20:06:14.310Z,79.01
2023-04-01T20:08:53.301Z,79.00
2023-04-01T20:11:41.592Z,79.06
2023-04-01T20:14:21.859Z,79.17
2023-04-01T20:17:06.598Z,79.09
2023-04-01T20:19:43.863Z,79.41
2023-04-01T20:22:35.996Z,78.98
2023-04-01T20:25:16.990Z,79.07
2023-04-01T20:27:54.330Z,79.44
2023-04-01T20:30:54.400Z,79.21
2023-04-01T20:34:07.574Z,79.69
2023-04-01T20:36:52.178Z,79.39
2023-04-01T20:40:12.835Z,79.33
2023-04-01T20:43:18.568Z,79.89
2023-04-01T20:45:58.964Z,79.52
2023-04-01T20:49:23.150Z,79.41
2023-04-01T20:52:03.915Z,79.49
2023-04-01T20:54:55.276Z,79.41
2023-04-01T20:57:31.892Z,79.20
2023-04-01T21:00:33.351Z,79.42
2023-04-01T21:03:23.717Z,79.63
2023-04-01T21:06:22.280Z,79.81
2023-04-01T21:09:06.812Z,79.71
2023-04-01T21:11:53.220Z,79.87
2023-04-01T21:15:00.215Z,79.95
2023-04-01T21:17:46.306Z,79.81
2023-04-01T21:20:45.280Z,80.04
2023-04-01T21:23:44.282Z,79.85
2023-04-01T21:26:29.458Z,80.19
2023-04-01T21:29:23.099Z,80.51
2023-04-01T21:32:05.198Z,80.68
2023-04-01T21:34:46.476Z,80.93
2023-04-01T21:37:48.139Z,80.69
2023-04-01T21:40:52.540Z,81.07
2023-04-01T21:43:44.305Z,80.90
2023-04-01T21:47:07.665Z,80.47
2023-04-01T21:50:05.498Z,80.93
2023-04-01T21:53:09.654Z,81.29
2023-04-01T21:56:29.105Z,81.32
2023-04-01T21:59:55.368Z,80.83
2023-04-01T22:03:15.996Z,80.53
2023-04-01T22:06:05.131Z,80.28
2023-04-01T22:09:09.737Z,80.64
2023-04-01T22:11:55.570Z,80.70
2023-04-01T22:14:32.977Z,80.46
2023-04-01T22:17:09.512Z,80.71
2023-04-01T22:19:52.002Z,80.83
2023-04-01T22:22:27.508Z,80.30
2023-04-01T22:25:08.935Z,79.98
2023-04-01T22:27:46.144Z,80.15
2023-04-01T22:30:24.579Z,80.05
2023-04-01T22:33:02.970Z,79.99
2023-04-01T22:35:46.770Z,79.49
2023-04-01T22:38:35.089Z,79.71
2023-04-01T22:41:16.433Z,79.75
2023-04-01T22:43:48.818Z,79.87
2023-04-01T22:46:50.204Z,79.02
2023-04-01T22:49:29.083Z,78.65
2023-04-01T22:52:09.654Z,78.74
2023-04-01T22:54:46.027Z,78.81
2023-04-01T22:57:35.993Z,79.37
2023-04-01T23:00:16.376Z,79.01
2023-04-01T23:03:03.367Z,78.80
2023-04-01T23:05:35.980Z,79.00
2023-04-01T23:08:50.940Z,78.42
2023-04-01T23:11:26.810Z,78.27
2023-04-01T23:14:09.171Z,78.07
2023-04-01T23:16:45.334Z,78.20
2023-04-01T23:19:24.090Z,78.38
2023-04-01T23:22:02.867Z,78.19
2023-04-01T23:24:41.903Z,78.38
2023-04-01T23:27:19.342Z,78.41
2023-04-01T23:29:50.223Z,78.43
2023-04-01T23:32:22.982Z,78.62
2023-04-01T23:34:56.095Z,78.69
2023-04-01T23:37:27.669Z,78.86
2023-04-01T23:40:02.273Z,78.90
2023-04-01T23:42:35.282Z,78.77
2023-04-01T23:45:09.865Z,78.80
2023-04-01T23:47:44.224Z,78.96
2023-04-01T23:50:19.017Z,79.11
2023-04-01T23:52:53.317Z,78.70
2023-04-01T23:55:30.777Z,79.02
2023-04-01T23:58:18.902Z,79.19
